sensor_id;sensor_type;location;lat;lon;timestamp;temperature;humidity
38464;DHT22;24243;51.956;5.902;2023-03-08T00:01:19;18.10;52.70
38464;DHT22;24243;51.956;5.902;2023-03-08T00:03:45;18.10;52.70
38464;DHT22;24243;51.956;5.902;2023-03-08T00:06:11;18.10;52.70
38464;DHT22;24243;51.956;5.902;2023-03-08T00:08:37;18.10;52.70
38464;DHT22;24243;51.956;5.902;2023-03-08T00:11:04;18.10;52.70
38464;DHT22;24243;51.956;5.902;2023-03-08T00:13:30;18.00;52.60
38464;DHT22;24243;51.956;5.902;2023-03-08T00:16:02;18.00;52.60
38464;DHT22;24243;51.956;5.902;2023-03-08T00:18:29;18.00;52.70
38464;DHT22;24243;51.956;5.902;2023-03-08T00:21:01;18.00;52.70
38464;DHT22;24243;51.956;5.902;2023-03-08T00:23:27;18.00;52.70
38464;DHT22;24243;51.956;5.902;2023-03-08T00:25:53;17.90;52.60
38464;DHT22;24243;51.956;5.902;2023-03-08T00:28:19;17.90;52.60
38464;DHT22;24243;51.956;5.902;2023-03-08T00:30:45;17.90;52.60
38464;DHT22;24243;51.956;5.902;2023-03-08T00:33:10;17.90;52.60
38464;DHT22;24243;51.956;5.902;2023-03-08T00:35:36;17.90;52.60
38464;DHT22;24243;51.956;5.902;2023-03-08T00:38:01;17.90;52.70
38464;DHT22;24243;51.956;5.902;2023-03-08T00:40:27;17.80;52.60
38464;DHT22;24243;51.956;5.902;2023-03-08T00:42:53;17.80;52.60
38464;DHT22;24243;51.956;5.902;2023-03-08T00:45:18;17.80;52.60
38464;DHT22;24243;51.956;5.902;2023-03-08T00:47:44;17.80;52.60
38464;DHT22;24243;51.956;5.902;2023-03-08T00:50:10;17.80;52.60
38464;DHT22;24243;51.956;5.902;2023-03-08T00:52:35;17.70;52.60
38464;DHT22;24243;51.956;5.902;2023-03-08T00:55:01;17.70;52.60
38464;DHT22;24243;51.956;5.902;2023-03-08T00:57:27;17.70;52.60
38464;DHT22;24243;51.956;5.902;2023-03-08T00:59:52;17.70;52.60
38464;DHT22;24243;51.956;5.902;2023-03-08T01:02:18;17.70;52.60
38464;DHT22;24243;51.956;5.902;2023-03-08T01:04:44;17.70;52.60
38464;DHT22;24243;51.956;5.902;2023-03-08T01:07:09;17.70;52.70
38464;DHT22;24243;51.956;5.902;2023-03-08T01:09:35;17.60;52.60
38464;DHT22;24243;51.956;5.902;2023-03-08T01:12:00;17.60;52.60
38464;DHT22;24243;51.956;5.902;2023-03-08T01:14:26;17.60;52.60
38464;DHT22;24243;51.956;5.902;2023-03-08T01:16:52;17.60;52.60
38464;DHT22;24243;51.956;5.902;2023-03-08T01:19:17;17.60;52.60
38464;DHT22;24243;51.956;5.902;2023-03-08T01:21:43;17.60;52.60
38464;DHT22;24243;51.956;5.902;2023-03-08T01:24:09;17.60;52.60
38464;DHT22;24243;51.956;5.902;2023-03-08T01:26:34;17.60;52.60
38464;DHT22;24243;51.956;5.902;2023-03-08T01:29:00;17.60;52.60
38464;DHT22;24243;51.956;5.902;2023-03-08T01:31:27;17.60;52.60
38464;DHT22;24243;51.956;5.902;2023-03-08T01:33:53;17.50;52.60
38464;DHT22;24243;51.956;5.902;2023-03-08T01:36:20;17.50;52.60
38464;DHT22;24243;51.956;5.902;2023-03-08T01:38:46;17.50;52.60
38464;DHT22;24243;51.956;5.902;2023-03-08T01:41:13;17.50;52.60
38464;DHT22;24243;51.956;5.902;2023-03-08T01:43:39;17.50;52.60
38464;DHT22;24243;51.956;5.902;2023-03-08T01:48:44;17.50;52.60
38464;DHT22;24243;51.956;5.902;2023-03-08T01:51:14;17.50;53.20
38464;DHT22;24243;51.956;5.902;2023-03-08T01:53:40;17.40;52.50
38464;DHT22;24243;51.956;5.902;2023-03-08T01:56:08;17.40;52.50
38464;DHT22;24243;51.956;5.902;2023-03-08T01:58:34;17.40;52.50
38464;DHT22;24243;51.956;5.902;2023-03-08T02:01:00;17.40;52.50
38464;DHT22;24243;51.956;5.902;2023-03-08T02:03:25;17.40;52.60
38464;DHT22;24243;51.956;5.902;2023-03-08T02:05:51;17.40;52.50
38464;DHT22;24243;51.956;5.902;2023-03-08T02:08:17;17.40;52.50
38464;DHT22;24243;51.956;5.902;2023-03-08T02:10:42;17.30;52.50
38464;DHT22;24243;51.956;5.902;2023-03-08T02:13:08;17.40;52.50
38464;DHT22;24243;51.956;5.902;2023-03-08T02:15:34;17.40;52.50
38464;DHT22;24243;51.956;5.902;2023-03-08T02:18:00;17.30;52.50
38464;DHT22;24243;51.956;5.902;2023-03-08T02:20:27;17.30;52.50
38464;DHT22;24243;51.956;5.902;2023-03-08T02:22:53;17.30;52.50
38464;DHT22;24243;51.956;5.902;2023-03-08T02:25:23;17.30;52.50
38464;DHT22;24243;51.956;5.902;2023-03-08T02:27:49;17.30;52.50
38464;DHT22;24243;51.956;5.902;2023-03-08T02:30:17;17.30;52.50
38464;DHT22;24243;51.956;5.902;2023-03-08T02:32:47;17.30;52.50
38464;DHT22;24243;51.956;5.902;2023-03-08T02:35:12;17.30;52.50
38464;DHT22;24243;51.956;5.902;2023-03-08T02:37:38;17.30;52.50
38464;DHT22;24243;51.956;5.902;2023-03-08T02:40:04;17.30;52.50
38464;DHT22;24243;51.956;5.902;2023-03-08T02:42:30;17.30;52.50
38464;DHT22;24243;51.956;5.902;2023-03-08T02:44:55;17.20;52.50
38464;DHT22;24243;51.956;5.902;2023-03-08T02:47:21;17.20;52.40
38464;DHT22;24243;51.956;5.902;2023-03-08T02:49:46;17.20;52.40
38464;DHT22;24243;51.956;5.902;2023-03-08T02:52:15;17.20;52.40
38464;DHT22;24243;51.956;5.902;2023-03-08T02:54:41;17.20;52.40
38464;DHT22;24243;51.956;5.902;2023-03-08T02:57:07;17.20;52.40
38464;DHT22;24243;51.956;5.902;2023-03-08T02:59:32;17.20;53.00
38464;DHT22;24243;51.956;5.902;2023-03-08T03:01:58;17.10;52.30
38464;DHT22;24243;51.956;5.902;2023-03-08T03:04:24;17.20;52.40
38464;DHT22;24243;51.956;5.902;2023-03-08T03:06:49;17.10;52.40
38464;DHT22;24243;51.956;5.902;2023-03-08T03:09:15;17.10;52.40
38464;DHT22;24243;51.956;5.902;2023-03-08T03:11:41;17.10;52.40
38464;DHT22;24243;51.956;5.902;2023-03-08T03:14:06;17.10;52.40
38464;DHT22;24243;51.956;5.902;2023-03-08T03:16:32;17.10;52.40
38464;DHT22;24243;51.956;5.902;2023-03-08T03:18:58;17.10;52.40
38464;DHT22;24243;51.956;5.902;2023-03-08T03:21:24;17.10;52.40
38464;DHT22;24243;51.956;5.902;2023-03-08T03:23:50;17.10;52.40
38464;DHT22;24243;51.956;5.902;2023-03-08T03:26:17;17.10;52.30
38464;DHT22;24243;51.956;5.902;2023-03-08T03:28:43;17.10;52.30
38464;DHT22;24243;51.956;5.902;2023-03-08T03:31:14;17.10;52.40
38464;DHT22;24243;51.956;5.902;2023-03-08T03:33:40;17.10;52.30
38464;DHT22;24243;51.956;5.902;2023-03-08T03:36:06;17.00;52.30
38464;DHT22;24243;51.956;5.902;2023-03-08T03:38:34;17.10;52.30
38464;DHT22;24243;51.956;5.902;2023-03-08T03:41:00;17.00;52.30
38464;DHT22;24243;51.956;5.902;2023-03-08T03:43:26;17.00;52.30
38464;DHT22;24243;51.956;5.902;2023-03-08T03:45:55;17.10;52.30
38464;DHT22;24243;51.956;5.902;2023-03-08T03:48:21;17.10;52.30
38464;DHT22;24243;51.956;5.902;2023-03-08T03:50:57;17.00;52.30
38464;DHT22;24243;51.956;5.902;2023-03-08T03:53:23;17.10;52.30
38464;DHT22;24243;51.956;5.902;2023-03-08T03:55:49;17.00;52.30
38464;DHT22;24243;51.956;5.902;2023-03-08T03:58:15;17.00;52.30
38464;DHT22;24243;51.956;5.902;2023-03-08T04:00:40;17.00;52.30
38464;DHT22;24243;51.956;5.902;2023-03-08T04:03:06;17.00;52.30
38464;DHT22;24243;51.956;5.902;2023-03-08T04:05:31;17.00;52.30
38464;DHT22;24243;51.956;5.902;2023-03-08T04:07:57;17.00;52.30
38464;DHT22;24243;51.956;5.902;2023-03-08T04:10:23;17.00;52.30
38464;DHT22;24243;51.956;5.902;2023-03-08T04:12:50;17.00;52.30
38464;DHT22;24243;51.956;5.902;2023-03-08T04:15:18;17.00;52.30
38464;DHT22;24243;51.956;5.902;2023-03-08T04:17:44;17.00;52.30
38464;DHT22;24243;51.956;5.902;2023-03-08T04:20:10;17.00;52.30
38464;DHT22;24243;51.956;5.902;2023-03-08T04:22:36;16.90;52.20
38464;DHT22;24243;51.956;5.902;2023-03-08T04:25:01;17.00;52.30
38464;DHT22;24243;51.956;5.902;2023-03-08T04:27:27;17.00;52.30
38464;DHT22;24243;51.956;5.902;2023-03-08T04:29:53;17.00;52.30
38464;DHT22;24243;51.956;5.902;2023-03-08T04:32:18;17.00;52.30
38464;DHT22;24243;51.956;5.902;2023-03-08T04:34:44;16.90;52.20
38464;DHT22;24243;51.956;5.902;2023-03-08T04:37:10;16.90;52.20
38464;DHT22;24243;51.956;5.902;2023-03-08T04:39:36;16.90;52.20
38464;DHT22;24243;51.956;5.902;2023-03-08T04:42:01;16.90;52.20
38464;DHT22;24243;51.956;5.902;2023-03-08T04:44:27;16.90;52.20
38464;DHT22;24243;51.956;5.902;2023-03-08T04:46:53;16.90;52.20
38464;DHT22;24243;51.956;5.902;2023-03-08T04:49:19;16.90;52.20
38464;DHT22;24243;51.956;5.902;2023-03-08T04:51:44;16.90;52.20
38464;DHT22;24243;51.956;5.902;2023-03-08T04:54:10;16.90;52.20
38464;DHT22;24243;51.956;5.902;2023-03-08T04:56:36;16.90;52.20
38464;DHT22;24243;51.956;5.902;2023-03-08T04:59:01;16.90;52.20
38464;DHT22;24243;51.956;5.902;2023-03-08T05:01:27;16.90;52.20
38464;DHT22;24243;51.956;5.902;2023-03-08T05:03:53;16.90;52.20
38464;DHT22;24243;51.956;5.902;2023-03-08T05:06:19;16.90;52.20
38464;DHT22;24243;51.956;5.902;2023-03-08T05:08:45;16.90;52.20
38464;DHT22;24243;51.956;5.902;2023-03-08T05:11:16;16.90;52.30
38464;DHT22;24243;51.956;5.902;2023-03-08T05:13:42;16.90;52.20
38464;DHT22;24243;51.956;5.902;2023-03-08T05:16:08;16.80;52.20
38464;DHT22;24243;51.956;5.902;2023-03-08T05:18:34;16.90;52.20
38464;DHT22;24243;51.956;5.902;2023-03-08T05:21:00;16.80;52.20
38464;DHT22;24243;51.956;5.902;2023-03-08T05:23:27;16.80;52.20
38464;DHT22;24243;51.956;5.902;2023-03-08T05:25:53;16.80;52.20
38464;DHT22;24243;51.956;5.902;2023-03-08T05:28:20;16.80;52.20
38464;DHT22;24243;51.956;5.902;2023-03-08T05:30:45;16.90;52.20
38464;DHT22;24243;51.956;5.902;2023-03-08T05:33:11;16.90;52.20
38464;DHT22;24243;51.956;5.902;2023-03-08T05:35:37;16.90;52.10
38464;DHT22;24243;51.956;5.902;2023-03-08T05:38:02;16.80;52.10
38464;DHT22;24243;51.956;5.902;2023-03-08T05:40:28;16.90;52.10
38464;DHT22;24243;51.956;5.902;2023-03-08T05:42:54;16.90;52.10
38464;DHT22;24243;51.956;5.902;2023-03-08T05:45:19;16.90;52.10
38464;DHT22;24243;51.956;5.902;2023-03-08T05:47:45;16.90;52.10
38464;DHT22;24243;51.956;5.902;2023-03-08T05:50:11;16.90;52.00
38464;DHT22;24243;51.956;5.902;2023-03-08T05:52:36;16.90;52.00
38464;DHT22;24243;51.956;5.902;2023-03-08T05:55:03;16.90;52.00
38464;DHT22;24243;51.956;5.902;2023-03-08T05:57:29;16.90;52.00
38464;DHT22;24243;51.956;5.902;2023-03-08T05:59:55;16.90;52.00
38464;DHT22;24243;51.956;5.902;2023-03-08T06:02:20;16.90;52.00
38464;DHT22;24243;51.956;5.902;2023-03-08T06:04:46;16.90;52.00
38464;DHT22;24243;51.956;5.902;2023-03-08T06:07:11;16.90;52.10
38464;DHT22;24243;51.956;5.902;2023-03-08T06:09:37;16.80;52.10
38464;DHT22;24243;51.956;5.902;2023-03-08T06:12:03;16.80;52.10
38464;DHT22;24243;51.956;5.902;2023-03-08T06:14:28;16.80;52.10
38464;DHT22;24243;51.956;5.902;2023-03-08T06:16:54;16.80;52.20
38464;DHT22;24243;51.956;5.902;2023-03-08T06:19:19;16.80;52.20
38464;DHT22;24243;51.956;5.902;2023-03-08T06:21:45;16.80;52.20
38464;DHT22;24243;51.956;5.902;2023-03-08T06:24:11;16.70;52.20
38464;DHT22;24243;51.956;5.902;2023-03-08T06:26:36;16.70;52.20
38464;DHT22;24243;51.956;5.902;2023-03-08T06:29:02;16.70;52.20
38464;DHT22;24243;51.956;5.902;2023-03-08T06:31:28;16.70;52.20
38464;DHT22;24243;51.956;5.902;2023-03-08T06:33:54;16.70;52.20
38464;DHT22;24243;51.956;5.902;2023-03-08T06:36:19;16.70;52.80
38464;DHT22;24243;51.956;5.902;2023-03-08T06:38:45;16.70;52.20
38464;DHT22;24243;51.956;5.902;2023-03-08T06:41:11;16.70;52.20
38464;DHT22;24243;51.956;5.902;2023-03-08T06:43:37;16.70;52.20
38464;DHT22;24243;51.956;5.902;2023-03-08T06:46:04;16.70;52.30
38464;DHT22;24243;51.956;5.902;2023-03-08T06:48:29;16.60;52.20
38464;DHT22;24243;51.956;5.902;2023-03-08T06:50:55;16.70;52.30
38464;DHT22;24243;51.956;5.902;2023-03-08T06:53:21;16.60;52.20
38464;DHT22;24243;51.956;5.902;2023-03-08T06:55:55;16.60;52.20
38464;DHT22;24243;51.956;5.902;2023-03-08T06:58:21;16.60;52.20
38464;DHT22;24243;51.956;5.902;2023-03-08T07:00:46;16.60;52.30
38464;DHT22;24243;51.956;5.902;2023-03-08T07:03:12;16.60;52.30
38464;DHT22;24243;51.956;5.902;2023-03-08T07:05:38;16.60;52.30
38464;DHT22;24243;51.956;5.902;2023-03-08T07:08:04;16.50;52.20
38464;DHT22;24243;51.956;5.902;2023-03-08T07:10:29;16.50;52.20
38464;DHT22;24243;51.956;5.902;2023-03-08T07:12:55;16.50;52.20
38464;DHT22;24243;51.956;5.902;2023-03-08T07:15:22;16.50;52.20
38464;DHT22;24243;51.956;5.902;2023-03-08T07:17:48;16.50;52.20
38464;DHT22;24243;51.956;5.902;2023-03-08T07:20:15;16.50;52.20
38464;DHT22;24243;51.956;5.902;2023-03-08T07:22:41;16.50;52.20
38464;DHT22;24243;51.956;5.902;2023-03-08T07:25:16;16.50;52.20
38464;DHT22;24243;51.956;5.902;2023-03-08T07:27:41;16.50;52.20
38464;DHT22;24243;51.956;5.902;2023-03-08T07:30:07;16.50;52.20
38464;DHT22;24243;51.956;5.902;2023-03-08T07:32:37;16.50;52.20
38464;DHT22;24243;51.956;5.902;2023-03-08T07:35:04;16.50;52.20
38464;DHT22;24243;51.956;5.902;2023-03-08T07:37:30;16.50;52.20
38464;DHT22;24243;51.956;5.902;2023-03-08T07:39:55;16.50;52.20
38464;DHT22;24243;51.956;5.902;2023-03-08T07:42:21;16.40;52.10
38464;DHT22;24243;51.956;5.902;2023-03-08T07:44:47;16.40;52.10
38464;DHT22;24243;51.956;5.902;2023-03-08T07:47:12;16.50;52.20
38464;DHT22;24243;51.956;5.902;2023-03-08T07:49:38;16.50;52.20
38464;DHT22;24243;51.956;5.902;2023-03-08T07:52:04;16.50;52.20
38464;DHT22;24243;51.956;5.902;2023-03-08T07:54:29;16.50;52.10
38464;DHT22;24243;51.956;5.902;2023-03-08T07:56:55;16.40;52.10
38464;DHT22;24243;51.956;5.902;2023-03-08T07:59:21;16.40;52.10
38464;DHT22;24243;51.956;5.902;2023-03-08T08:01:47;16.50;52.10
38464;DHT22;24243;51.956;5.902;2023-03-08T08:04:13;16.50;52.10
38464;DHT22;24243;51.956;5.902;2023-03-08T08:06:38;16.50;52.10
38464;DHT22;24243;51.956;5.902;2023-03-08T08:09:05;16.50;52.10
38464;DHT22;24243;51.956;5.902;2023-03-08T08:11:30;16.40;52.00
38464;DHT22;24243;51.956;5.902;2023-03-08T08:13:56;16.40;52.00
38464;DHT22;24243;51.956;5.902;2023-03-08T08:16:22;16.50;52.10
38464;DHT22;24243;51.956;5.902;2023-03-08T08:18:49;16.40;52.00
38464;DHT22;24243;51.956;5.902;2023-03-08T08:21:15;16.40;52.00
38464;DHT22;24243;51.956;5.902;2023-03-08T08:23:41;16.40;52.00
38464;DHT22;24243;51.956;5.902;2023-03-08T08:26:08;16.40;52.00
38464;DHT22;24243;51.956;5.902;2023-03-08T08:28:34;16.40;52.00
38464;DHT22;24243;51.956;5.902;2023-03-08T08:31:01;16.50;52.00
38464;DHT22;24243;51.956;5.902;2023-03-08T08:33:27;16.50;52.00
38464;DHT22;24243;51.956;5.902;2023-03-08T08:35:53;16.50;52.00
38464;DHT22;24243;51.956;5.902;2023-03-08T08:38:19;16.50;52.00
38464;DHT22;24243;51.956;5.902;2023-03-08T08:40:45;16.50;51.90
38464;DHT22;24243;51.956;5.902;2023-03-08T08:43:11;16.50;51.80
38464;DHT22;24243;51.956;5.902;2023-03-08T08:45:41;16.50;51.80
38464;DHT22;24243;51.956;5.902;2023-03-08T08:48:07;16.60;51.80
38464;DHT22;24243;51.956;5.902;2023-03-08T08:50:32;16.60;51.80
38464;DHT22;24243;51.956;5.902;2023-03-08T08:52:58;16.60;51.80
38464;DHT22;24243;51.956;5.902;2023-03-08T08:55:24;16.60;51.80
38464;DHT22;24243;51.956;5.902;2023-03-08T08:57:50;16.60;51.80
38464;DHT22;24243;51.956;5.902;2023-03-08T09:00:16;16.60;51.80
38464;DHT22;24243;51.956;5.902;2023-03-08T09:02:42;16.60;51.80
38464;DHT22;24243;51.956;5.902;2023-03-08T09:05:07;16.60;51.80
38464;DHT22;24243;51.956;5.902;2023-03-08T09:07:33;16.60;51.80
38464;DHT22;24243;51.956;5.902;2023-03-08T09:09:59;16.60;51.80
38464;DHT22;24243;51.956;5.902;2023-03-08T09:12:24;16.60;51.80
38464;DHT22;24243;51.956;5.902;2023-03-08T09:14:50;16.60;51.80
38464;DHT22;24243;51.956;5.902;2023-03-08T09:17:16;16.60;51.80
38464;DHT22;24243;51.956;5.902;2023-03-08T09:19:41;16.50;51.70
38464;DHT22;24243;51.956;5.902;2023-03-08T09:22:08;16.60;51.80
38464;DHT22;24243;51.956;5.902;2023-03-08T09:24:33;16.60;51.80
38464;DHT22;24243;51.956;5.902;2023-03-08T09:26:59;16.50;51.70
38464;DHT22;24243;51.956;5.902;2023-03-08T09:29:25;16.60;51.70
38464;DHT22;24243;51.956;5.902;2023-03-08T09:31:50;16.50;51.70
38464;DHT22;24243;51.956;5.902;2023-03-08T09:34:16;16.60;51.70
38464;DHT22;24243;51.956;5.902;2023-03-08T09:36:41;16.60;51.70
38464;DHT22;24243;51.956;5.902;2023-03-08T09:39:08;16.50;51.60
38464;DHT22;24243;51.956;5.902;2023-03-08T09:41:55;16.50;51.60
38464;DHT22;24243;51.956;5.902;2023-03-08T09:47:04;16.50;51.60
38464;DHT22;24243;51.956;5.902;2023-03-08T09:49:32;16.60;51.70
38464;DHT22;24243;51.956;5.902;2023-03-08T09:54:43;16.60;51.60
38464;DHT22;24243;51.956;5.902;2023-03-08T09:57:21;16.60;51.50
38464;DHT22;24243;51.956;5.902;2023-03-08T10:02:18;16.60;51.40
38464;DHT22;24243;51.956;5.902;2023-03-08T10:04:48;16.60;51.40
38464;DHT22;24243;51.956;5.902;2023-03-08T10:14:42;16.70;51.30
38464;DHT22;24243;51.956;5.902;2023-03-08T10:17:13;16.70;51.20
38464;DHT22;24243;51.956;5.902;2023-03-08T10:19:42;16.70;51.20
38464;DHT22;24243;51.956;5.902;2023-03-08T10:22:14;16.80;51.10
38464;DHT22;24243;51.956;5.902;2023-03-08T10:27:33;16.90;51.00
38464;DHT22;24243;51.956;5.902;2023-03-08T10:30:00;16.90;50.90
38464;DHT22;24243;51.956;5.902;2023-03-08T10:32:26;16.90;50.80
38464;DHT22;24243;51.956;5.902;2023-03-08T10:34:52;16.90;50.90
38464;DHT22;24243;51.956;5.902;2023-03-08T10:37:28;17.00;50.90
38464;DHT22;24243;51.956;5.902;2023-03-08T10:39:54;17.00;50.80
38464;DHT22;24243;51.956;5.902;2023-03-08T10:42:22;17.00;50.70
38464;DHT22;24243;51.956;5.902;2023-03-08T10:45:11;17.10;50.50
38464;DHT22;24243;51.956;5.902;2023-03-08T10:47:38;17.20;50.50
38464;DHT22;24243;51.956;5.902;2023-03-08T10:50:14;17.20;50.50
38464;DHT22;24243;51.956;5.902;2023-03-08T10:52:41;17.10;50.50
38464;DHT22;24243;51.956;5.902;2023-03-08T10:55:11;17.10;50.50
38464;DHT22;24243;51.956;5.902;2023-03-08T10:57:37;17.10;50.60
38464;DHT22;24243;51.956;5.902;2023-03-08T11:00:20;17.10;50.70
38464;DHT22;24243;51.956;5.902;2023-03-08T11:02:48;17.10;50.70
38464;DHT22;24243;51.956;5.902;2023-03-08T11:05:21;17.10;50.60
38464;DHT22;24243;51.956;5.902;2023-03-08T11:08:12;17.20;50.60
38464;DHT22;24243;51.956;5.902;2023-03-08T11:10:36;17.20;50.60
38464;DHT22;24243;51.956;5.902;2023-03-08T11:13:15;17.20;50.50
38464;DHT22;24243;51.956;5.902;2023-03-08T11:15:43;17.20;50.40
38464;DHT22;24243;51.956;5.902;2023-03-08T11:18:18;17.30;50.50
38464;DHT22;24243;51.956;5.902;2023-03-08T11:20:48;17.30;50.40
38464;DHT22;24243;51.956;5.902;2023-03-08T11:28:28;17.30;50.40
38464;DHT22;24243;51.956;5.902;2023-03-08T11:34:02;17.30;50.50
38464;DHT22;24243;51.956;5.902;2023-03-08T11:39:11;17.20;50.50
38464;DHT22;24243;51.956;5.902;2023-03-08T11:41:59;17.20;50.60
38464;DHT22;24243;51.956;5.902;2023-03-08T11:54:59;17.10;50.90
38464;DHT22;24243;51.956;5.902;2023-03-08T11:57:26;17.00;50.80
38464;DHT22;24243;51.956;5.902;2023-03-08T11:59:59;17.00;50.80
38464;DHT22;24243;51.956;5.902;2023-03-08T12:02:37;17.00;50.80
38464;DHT22;24243;51.956;5.902;2023-03-08T12:07:50;17.00;50.80
38464;DHT22;24243;51.956;5.902;2023-03-08T12:10:23;17.00;50.80
38464;DHT22;24243;51.956;5.902;2023-03-08T12:12:53;17.00;50.80
38464;DHT22;24243;51.956;5.902;2023-03-08T12:15:34;17.00;50.80
38464;DHT22;24243;51.956;5.902;2023-03-08T12:18:07;16.90;50.80
38464;DHT22;24243;51.956;5.902;2023-03-08T12:20:37;16.90;50.80
38464;DHT22;24243;51.956;5.902;2023-03-08T12:25:39;16.90;50.80
38464;DHT22;24243;51.956;5.902;2023-03-08T12:33:29;17.00;50.70
38464;DHT22;24243;51.956;5.902;2023-03-08T12:36:06;16.90;50.70
38464;DHT22;24243;51.956;5.902;2023-03-08T12:38:42;16.90;50.70
38464;DHT22;24243;51.956;5.902;2023-03-08T12:41:21;16.90;50.70
38464;DHT22;24243;51.956;5.902;2023-03-08T12:43:56;16.90;50.70
38464;DHT22;24243;51.956;5.902;2023-03-08T12:46:22;16.90;50.70
38464;DHT22;24243;51.956;5.902;2023-03-08T12:48:48;16.90;50.70
38464;DHT22;24243;51.956;5.902;2023-03-08T12:53:42;16.90;50.60
38464;DHT22;24243;51.956;5.902;2023-03-08T12:58:47;16.90;50.60
38464;DHT22;24243;51.956;5.902;2023-03-08T13:03:54;16.90;50.60
38464;DHT22;24243;51.956;5.902;2023-03-08T13:09:16;16.90;50.60
38464;DHT22;24243;51.956;5.902;2023-03-08T13:11:44;16.90;50.60
38464;DHT22;24243;51.956;5.902;2023-03-08T13:14:22;16.90;50.50
38464;DHT22;24243;51.956;5.902;2023-03-08T13:16:48;17.00;50.50
38464;DHT22;24243;51.956;5.902;2023-03-08T13:24:29;17.10;50.30
38464;DHT22;24243;51.956;5.902;2023-03-08T13:29:34;17.20;50.10
38464;DHT22;24243;51.956;5.902;2023-03-08T13:32:04;17.30;50.10
38464;DHT22;24243;51.956;5.902;2023-03-08T13:34:32;17.40;50.10
38464;DHT22;24243;51.956;5.902;2023-03-08T13:36:58;17.40;50.00
38464;DHT22;24243;51.956;5.902;2023-03-08T13:39:24;17.50;50.00
38464;DHT22;24243;51.956;5.902;2023-03-08T13:41:51;17.50;49.90
38464;DHT22;24243;51.956;5.902;2023-03-08T13:44:18;17.60;49.80
38464;DHT22;24243;51.956;5.902;2023-03-08T13:46:45;17.60;49.80
38464;DHT22;24243;51.956;5.902;2023-03-08T13:49:28;17.70;49.70
38464;DHT22;24243;51.956;5.902;2023-03-08T13:51:55;17.80;49.70
38464;DHT22;24243;51.956;5.902;2023-03-08T13:54:26;17.80;49.60
38464;DHT22;24243;51.956;5.902;2023-03-08T13:56:55;17.90;49.60
38464;DHT22;24243;51.956;5.902;2023-03-08T13:59:21;17.90;49.60
38464;DHT22;24243;51.956;5.902;2023-03-08T14:01:47;18.00;49.60
38464;DHT22;24243;51.956;5.902;2023-03-08T14:04:24;18.00;49.50
38464;DHT22;24243;51.956;5.902;2023-03-08T14:06:59;18.00;49.50
38464;DHT22;24243;51.956;5.902;2023-03-08T14:09:25;18.10;49.50
38464;DHT22;24243;51.956;5.902;2023-03-08T14:11:56;18.10;49.50
38464;DHT22;24243;51.956;5.902;2023-03-08T14:14:33;18.10;49.50
38464;DHT22;24243;51.956;5.902;2023-03-08T14:16:59;18.20;49.50
38464;DHT22;24243;51.956;5.902;2023-03-08T14:19:26;18.20;49.50
38464;DHT22;24243;51.956;5.902;2023-03-08T14:21:53;18.20;49.50
38464;DHT22;24243;51.956;5.902;2023-03-08T14:24:26;18.30;49.50
38464;DHT22;24243;51.956;5.902;2023-03-08T14:26:53;18.30;49.40
38464;DHT22;24243;51.956;5.902;2023-03-08T14:29:20;18.30;49.40
38464;DHT22;24243;51.956;5.902;2023-03-08T14:34:32;18.40;49.40
38464;DHT22;24243;51.956;5.902;2023-03-08T14:37:13;18.40;49.30
38464;DHT22;24243;51.956;5.902;2023-03-08T14:39:47;18.50;49.40
38464;DHT22;24243;51.956;5.902;2023-03-08T14:45:01;18.50;49.40
38464;DHT22;24243;51.956;5.902;2023-03-08T14:47:29;18.50;49.40
38464;DHT22;24243;51.956;5.902;2023-03-08T14:49:59;18.60;49.40
38464;DHT22;24243;51.956;5.902;2023-03-08T14:52:26;18.60;49.40
38464;DHT22;24243;51.956;5.902;2023-03-08T14:54:52;18.60;49.40
38464;DHT22;24243;51.956;5.902;2023-03-08T14:57:21;18.60;49.40
38464;DHT22;24243;51.956;5.902;2023-03-08T14:59:48;18.60;49.40
38464;DHT22;24243;51.956;5.902;2023-03-08T15:02:20;18.60;49.40
38464;DHT22;24243;51.956;5.902;2023-03-08T15:04:46;18.60;49.40
38464;DHT22;24243;51.956;5.902;2023-03-08T15:07:18;18.60;49.40
38464;DHT22;24243;51.956;5.902;2023-03-08T15:09:44;18.70;49.50
38464;DHT22;24243;51.956;5.902;2023-03-08T15:12:10;18.70;49.50
38464;DHT22;24243;51.956;5.902;2023-03-08T15:14:36;18.70;49.50
38464;DHT22;24243;51.956;5.902;2023-03-08T15:17:02;18.70;49.40
38464;DHT22;24243;51.956;5.902;2023-03-08T15:19:28;18.70;49.50
38464;DHT22;24243;51.956;5.902;2023-03-08T15:21:53;18.70;49.40
38464;DHT22;24243;51.956;5.902;2023-03-08T15:24:19;18.70;49.50
38464;DHT22;24243;51.956;5.902;2023-03-08T15:26:45;18.70;49.40
38464;DHT22;24243;51.956;5.902;2023-03-08T15:29:32;18.80;49.50
38464;DHT22;24243;51.956;5.902;2023-03-08T15:31:57;18.80;49.40
38464;DHT22;24243;51.956;5.902;2023-03-08T15:34:23;18.80;50.00
38464;DHT22;24243;51.956;5.902;2023-03-08T15:36:49;18.80;49.40
38464;DHT22;24243;51.956;5.902;2023-03-08T15:39:15;18.90;49.40
38464;DHT22;24243;51.956;5.902;2023-03-08T15:41:40;18.90;49.40
38464;DHT22;24243;51.956;5.902;2023-03-08T15:44:06;18.90;49.40
38464;DHT22;24243;51.956;5.902;2023-03-08T15:46:32;18.90;49.40
38464;DHT22;24243;51.956;5.902;2023-03-08T15:48:58;18.90;49.40
38464;DHT22;24243;51.956;5.902;2023-03-08T15:51:25;19.00;49.40
38464;DHT22;24243;51.956;5.902;2023-03-08T15:53:52;19.00;49.40
38464;DHT22;24243;51.956;5.902;2023-03-08T15:56:18;19.00;49.40
38464;DHT22;24243;51.956;5.902;2023-03-08T15:58:43;19.00;49.40
38464;DHT22;24243;51.956;5.902;2023-03-08T16:01:09;19.10;49.40
38464;DHT22;24243;51.956;5.902;2023-03-08T16:03:36;19.00;49.30
38464;DHT22;24243;51.956;5.902;2023-03-08T16:06:07;19.10;49.40
38464;DHT22;24243;51.956;5.902;2023-03-08T16:08:33;19.10;49.40
38464;DHT22;24243;51.956;5.902;2023-03-08T16:11:00;19.10;49.40
38464;DHT22;24243;51.956;5.902;2023-03-08T16:13:28;19.10;49.40
38464;DHT22;24243;51.956;5.902;2023-03-08T16:15:56;19.10;49.40
38464;DHT22;24243;51.956;5.902;2023-03-08T16:18:21;19.20;49.40
38464;DHT22;24243;51.956;5.902;2023-03-08T16:20:47;19.20;49.40
38464;DHT22;24243;51.956;5.902;2023-03-08T16:23:13;19.20;49.40
38464;DHT22;24243;51.956;5.902;2023-03-08T16:25:38;19.20;49.40
38464;DHT22;24243;51.956;5.902;2023-03-08T16:28:07;19.20;49.40
38464;DHT22;24243;51.956;5.902;2023-03-08T16:30:33;19.20;49.40
38464;DHT22;24243;51.956;5.902;2023-03-08T16:32:59;19.20;49.40
38464;DHT22;24243;51.956;5.902;2023-03-08T16:35:25;19.30;49.50
38464;DHT22;24243;51.956;5.902;2023-03-08T16:37:53;19.30;49.50
38464;DHT22;24243;51.956;5.902;2023-03-08T16:40:19;19.30;49.50
38464;DHT22;24243;51.956;5.902;2023-03-08T16:42:45;19.30;49.50
38464;DHT22;24243;51.956;5.902;2023-03-08T16:45:13;19.30;49.50
38464;DHT22;24243;51.956;5.902;2023-03-08T16:47:39;19.30;49.50